首页
METAR-TAF:

METAR-TAF

机场 :

佛罗伦萨-佩雷托拉机场

佛罗伦萨, 意大利

纬度: 43-48N, 经度: 011-12E, 海拔: 40米

当前天气观测

该预报发布于42分钟前的01:20 UTC
风速1节,风向多变
温度 13°C
湿度 94%
气压 1014 hPa
能见度10公里或以上
1500米以下无云,无积雨云

METAR: LIRQ 250120Z VRB01KT CAVOK 13/12 Q1014

时间: 04:02 (02:02 UTC)

预报

该预报发布于3小时和2分钟前的23:00 UTC
预报有效从25日的 00点(UTC)到 25日的 24点(UTC)
风速6节,风向多变
能见度10公里或以上
散云层高于4000英尺
短暂存在
从 25日的 14点(UTC)到 25日的 18点(UTC)
阵雨

TAF: LIRQ 242300Z 2500/2524 VRB06KT 9999 SCT040 TEMPO 2514/2518 SHRA

超过4000个机场的气象观测和天气预报(METAR&TAF报告)。

可查询的气象台以黄色和红色小点在地图上表示。

将鼠标移到小点上方,可查看气象台名称。

然后点击查看天气观测和预报。

如需切换地图:点击带黑十字的绿色按钮放大地图;点击带横线的绿色按钮缩小地图;或者点击绿色箭头查看邻近地区的地图。


METAR-TAF: